KCTY/CTY METAR and TAF weather

Enter ICAO airport designator
Station Type Date Time Source
KCTY METAR 2021/07/24 20:35 UTC NOAA

KCTY 242035Z AUTO 07008KT 10SM 31/23 A2999 RMK AO2 T03130232


Station Type Date Time Source
KCTY Decoded METAR 2021/07/24 20:35 UTC NOAA

CROSS CITY AIRPORT, FL, United States (KCTY) 29-38N 083-06W 12M
Jul 24, 2021 - 04:35 PM EDT / 2021.07.24 2035 UTC
Wind: from the ENE (070 degrees) at 9 MPH (8 KT):0
Visibility: 10 mile(s):0
Temperature: 88.3 F (31.3 C)
Heat index: 96.8 F (36.0 C):1
Dew Point: 73.8 F (23.2 C)
Relative Humidity: 62%
Pressure (altimeter): 29.99 in. Hg (1015 hPa)
ob: KCTY 242035Z AUTO 07008KT 10SM 31/23 A2999 RMK AO2 T03130232
cycle: 20

Station Type Date Time Source
KCTY TAF UTC NOAA

Error!

Example: see airport list